sensor_id;sensor_type;location;lat;lon;timestamp;P1;durP1;ratioP1;P2;durP2;ratioP2
52208;SDS011;38507;53.132;6.394;2023-06-10T00:02:07;8.23;;;4.30;;
52208;SDS011;38507;53.132;6.394;2023-06-10T00:04:33;10.07;;;4.50;;
52208;SDS011;38507;53.132;6.394;2023-06-10T00:06:59;9.63;;;4.70;;
52208;SDS011;38507;53.132;6.394;2023-06-10T00:09:24;9.25;;;4.90;;
52208;SDS011;38507;53.132;6.394;2023-06-10T00:11:50;16.08;;;4.82;;
52208;SDS011;38507;53.132;6.394;2023-06-10T00:14:16;8.20;;;4.05;;
52208;SDS011;38507;53.132;6.394;2023-06-10T00:16:42;12.25;;;4.50;;
52208;SDS011;38507;53.132;6.394;2023-06-10T00:19:10;9.57;;;4.28;;
52208;SDS011;38507;53.132;6.394;2023-06-10T00:21:39;8.45;;;4.25;;
52208;SDS011;38507;53.132;6.394;2023-06-10T00:24:10;11.05;;;4.85;;
52208;SDS011;38507;53.132;6.394;2023-06-10T00:26:40;6.93;;;4.15;;
52208;SDS011;38507;53.132;6.394;2023-06-10T00:29:06;8.02;;;4.32;;
52208;SDS011;38507;53.132;6.394;2023-06-10T00:31:36;10.45;;;4.60;;
52208;SDS011;38507;53.132;6.394;2023-06-10T00:34:02;8.77;;;4.25;;
52208;SDS011;38507;53.132;6.394;2023-06-10T00:36:28;8.82;;;4.60;;
52208;SDS011;38507;53.132;6.394;2023-06-10T00:38:55;8.48;;;4.57;;
52208;SDS011;38507;53.132;6.394;2023-06-10T00:41:20;9.02;;;4.60;;
52208;SDS011;38507;53.132;6.394;2023-06-10T00:43:46;9.30;;;4.70;;
52208;SDS011;38507;53.132;6.394;2023-06-10T00:46:12;10.07;;;4.65;;
52208;SDS011;38507;53.132;6.394;2023-06-10T00:48:41;10.98;;;4.35;;
52208;SDS011;38507;53.132;6.394;2023-06-10T00:51:08;9.88;;;4.65;;
52208;SDS011;38507;53.132;6.394;2023-06-10T00:53:38;13.25;;;4.93;;
52208;SDS011;38507;53.132;6.394;2023-06-10T00:56:05;10.32;;;5.18;;
52208;SDS011;38507;53.132;6.394;2023-06-10T00:58:31;13.57;;;4.63;;
52208;SDS011;38507;53.132;6.394;2023-06-10T01:00:57;11.13;;;5.15;;
52208;SDS011;38507;53.132;6.394;2023-06-10T01:03:23;8.48;;;4.40;;
52208;SDS011;38507;53.132;6.394;2023-06-10T01:05:52;9.77;;;5.07;;
52208;SDS011;38507;53.132;6.394;2023-06-10T01:11:20;11.10;;;4.60;;
52208;SDS011;38507;53.132;6.394;2023-06-10T01:13:49;12.05;;;4.90;;
52208;SDS011;38507;53.132;6.394;2023-06-10T01:16:17;10.82;;;5.30;;
52208;SDS011;38507;53.132;6.394;2023-06-10T01:18:44;11.00;;;5.90;;
52208;SDS011;38507;53.132;6.394;2023-06-10T01:21:13;12.52;;;5.03;;
52208;SDS011;38507;53.132;6.394;2023-06-10T01:23:44;12.38;;;5.22;;
52208;SDS011;38507;53.132;6.394;2023-06-10T01:26:10;10.25;;;5.47;;
52208;SDS011;38507;53.132;6.394;2023-06-10T01:28:50;12.90;;;5.22;;
52208;SDS011;38507;53.132;6.394;2023-06-10T01:34:09;15.35;;;4.97;;
52208;SDS011;38507;53.132;6.394;2023-06-10T01:36:36;10.32;;;5.28;;
52208;SDS011;38507;53.132;6.394;2023-06-10T01:39:04;9.80;;;5.03;;
52208;SDS011;38507;53.132;6.394;2023-06-10T01:41:31;10.93;;;5.07;;
52208;SDS011;38507;53.132;6.394;2023-06-10T01:43:57;9.80;;;5.13;;
52208;SDS011;38507;53.132;6.394;2023-06-10T01:46:23;15.05;;;5.72;;
52208;SDS011;38507;53.132;6.394;2023-06-10T01:48:49;10.38;;;5.13;;
52208;SDS011;38507;53.132;6.394;2023-06-10T01:51:14;7.90;;;5.25;;
52208;SDS011;38507;53.132;6.394;2023-06-10T01:53:40;15.80;;;5.53;;
52208;SDS011;38507;53.132;6.394;2023-06-10T01:56:06;9.60;;;5.68;;
52208;SDS011;38507;53.132;6.394;2023-06-10T01:58:31;12.55;;;6.03;;
52208;SDS011;38507;53.132;6.394;2023-06-10T02:00:57;12.68;;;6.28;;
52208;SDS011;38507;53.132;6.394;2023-06-10T02:03:23;11.13;;;5.50;;
52208;SDS011;38507;53.132;6.394;2023-06-10T02:05:48;12.73;;;6.53;;
52208;SDS011;38507;53.132;6.394;2023-06-10T02:08:14;13.07;;;6.50;;
52208;SDS011;38507;53.132;6.394;2023-06-10T02:10:40;12.20;;;6.60;;
52208;SDS011;38507;53.132;6.394;2023-06-10T02:13:05;11.88;;;6.45;;
52208;SDS011;38507;53.132;6.394;2023-06-10T02:15:31;10.60;;;6.35;;
52208;SDS011;38507;53.132;6.394;2023-06-10T02:17:57;11.70;;;6.95;;
52208;SDS011;38507;53.132;6.394;2023-06-10T02:20:23;10.65;;;7.32;;
52208;SDS011;38507;53.132;6.394;2023-06-10T02:22:48;12.13;;;7.15;;
52208;SDS011;38507;53.132;6.394;2023-06-10T02:25:14;13.15;;;7.57;;
52208;SDS011;38507;53.132;6.394;2023-06-10T02:27:40;11.95;;;7.47;;
52208;SDS011;38507;53.132;6.394;2023-06-10T02:30:06;12.73;;;7.25;;
52208;SDS011;38507;53.132;6.394;2023-06-10T02:32:34;14.27;;;7.20;;
52208;SDS011;38507;53.132;6.394;2023-06-10T02:35:00;12.82;;;7.43;;
52208;SDS011;38507;53.132;6.394;2023-06-10T02:37:26;13.52;;;7.75;;
52208;SDS011;38507;53.132;6.394;2023-06-10T02:39:52;12.73;;;7.47;;
52208;SDS011;38507;53.132;6.394;2023-06-10T02:42:17;13.45;;;7.25;;
52208;SDS011;38507;53.132;6.394;2023-06-10T02:44:43;15.07;;;7.53;;
52208;SDS011;38507;53.132;6.394;2023-06-10T02:47:09;10.90;;;6.38;;
52208;SDS011;38507;53.132;6.394;2023-06-10T02:49:34;12.55;;;6.40;;
52208;SDS011;38507;53.132;6.394;2023-06-10T02:52:00;11.00;;;5.90;;
52208;SDS011;38507;53.132;6.394;2023-06-10T02:54:26;10.68;;;6.00;;
52208;SDS011;38507;53.132;6.394;2023-06-10T02:56:52;13.65;;;6.22;;
52208;SDS011;38507;53.132;6.394;2023-06-10T02:59:18;8.60;;;5.28;;
52208;SDS011;38507;53.132;6.394;2023-06-10T03:01:44;11.50;;;5.20;;
52208;SDS011;38507;53.132;6.394;2023-06-10T03:04:11;9.60;;;5.47;;
52208;SDS011;38507;53.132;6.394;2023-06-10T03:06:38;9.30;;;5.10;;
52208;SDS011;38507;53.132;6.394;2023-06-10T03:09:05;12.48;;;5.13;;
52208;SDS011;38507;53.132;6.394;2023-06-10T03:11:32;7.13;;;4.78;;
52208;SDS011;38507;53.132;6.394;2023-06-10T03:13:58;11.00;;;5.05;;
52208;SDS011;38507;53.132;6.394;2023-06-10T03:16:24;10.13;;;4.90;;
52208;SDS011;38507;53.132;6.394;2023-06-10T03:18:52;10.65;;;4.82;;
52208;SDS011;38507;53.132;6.394;2023-06-10T03:21:18;9.50;;;4.78;;
52208;SDS011;38507;53.132;6.394;2023-06-10T03:23:44;9.93;;;4.85;;
52208;SDS011;38507;53.132;6.394;2023-06-10T03:26:10;10.80;;;4.80;;
52208;SDS011;38507;53.132;6.394;2023-06-10T03:28:37;12.68;;;4.63;;
52208;SDS011;38507;53.132;6.394;2023-06-10T03:31:03;12.63;;;4.35;;
52208;SDS011;38507;53.132;6.394;2023-06-10T03:33:29;12.27;;;4.80;;
52208;SDS011;38507;53.132;6.394;2023-06-10T03:35:55;12.57;;;4.93;;
52208;SDS011;38507;53.132;6.394;2023-06-10T03:38:20;13.68;;;5.28;;
52208;SDS011;38507;53.132;6.394;2023-06-10T03:40:46;9.65;;;4.72;;
52208;SDS011;38507;53.132;6.394;2023-06-10T03:43:12;11.52;;;5.05;;
52208;SDS011;38507;53.132;6.394;2023-06-10T03:45:38;9.93;;;4.70;;
52208;SDS011;38507;53.132;6.394;2023-06-10T03:48:04;11.25;;;4.75;;
52208;SDS011;38507;53.132;6.394;2023-06-10T03:50:31;12.82;;;5.40;;
52208;SDS011;38507;53.132;6.394;2023-06-10T03:52:57;10.77;;;5.63;;
52208;SDS011;38507;53.132;6.394;2023-06-10T03:55:23;9.68;;;5.40;;
52208;SDS011;38507;53.132;6.394;2023-06-10T03:57:49;16.02;;;5.43;;
52208;SDS011;38507;53.132;6.394;2023-06-10T04:00:17;11.15;;;5.60;;
52208;SDS011;38507;53.132;6.394;2023-06-10T04:02:45;12.30;;;6.30;;
52208;SDS011;38507;53.132;6.394;2023-06-10T04:05:12;12.38;;;6.38;;
52208;SDS011;38507;53.132;6.394;2023-06-10T04:07:39;14.15;;;6.20;;
52208;SDS011;38507;53.132;6.394;2023-06-10T04:10:09;11.68;;;5.90;;
52208;SDS011;38507;53.132;6.394;2023-06-10T04:12:35;14.32;;;7.18;;
52208;SDS011;38507;53.132;6.394;2023-06-10T04:15:01;14.95;;;6.72;;
52208;SDS011;38507;53.132;6.394;2023-06-10T04:17:28;19.08;;;8.25;;
52208;SDS011;38507;53.132;6.394;2023-06-10T04:19:54;24.40;;;8.40;;
52208;SDS011;38507;53.132;6.394;2023-06-10T04:22:23;15.23;;;6.93;;
52208;SDS011;38507;53.132;6.394;2023-06-10T04:24:49;14.85;;;8.07;;
52208;SDS011;38507;53.132;6.394;2023-06-10T04:27:14;13.23;;;7.15;;
52208;SDS011;38507;53.132;6.394;2023-06-10T04:29:40;18.08;;;7.20;;
52208;SDS011;38507;53.132;6.394;2023-06-10T04:32:06;10.75;;;6.35;;
52208;SDS011;38507;53.132;6.394;2023-06-10T04:34:32;14.75;;;7.07;;
52208;SDS011;38507;53.132;6.394;2023-06-10T04:36:58;11.30;;;6.20;;
52208;SDS011;38507;53.132;6.394;2023-06-10T04:39:24;12.27;;;6.07;;
52208;SDS011;38507;53.132;6.394;2023-06-10T04:41:50;13.02;;;6.28;;
52208;SDS011;38507;53.132;6.394;2023-06-10T04:44:15;14.82;;;6.65;;
52208;SDS011;38507;53.132;6.394;2023-06-10T04:46:41;15.35;;;5.97;;
52208;SDS011;38507;53.132;6.394;2023-06-10T04:49:07;15.75;;;6.10;;
52208;SDS011;38507;53.132;6.394;2023-06-10T04:51:32;12.45;;;6.05;;
52208;SDS011;38507;53.132;6.394;2023-06-10T04:53:59;13.77;;;5.97;;
52208;SDS011;38507;53.132;6.394;2023-06-10T04:56:28;13.85;;;5.97;;
52208;SDS011;38507;53.132;6.394;2023-06-10T04:58:55;15.73;;;5.72;;
52208;SDS011;38507;53.132;6.394;2023-06-10T05:01:24;12.70;;;5.65;;
52208;SDS011;38507;53.132;6.394;2023-06-10T05:03:50;17.13;;;5.55;;
52208;SDS011;38507;53.132;6.394;2023-06-10T05:06:16;15.82;;;5.47;;
52208;SDS011;38507;53.132;6.394;2023-06-10T05:08:42;15.45;;;5.32;;
52208;SDS011;38507;53.132;6.394;2023-06-10T05:11:08;11.18;;;4.97;;
52208;SDS011;38507;53.132;6.394;2023-06-10T05:13:33;16.27;;;4.78;;
52208;SDS011;38507;53.132;6.394;2023-06-10T05:15:59;14.85;;;5.20;;
52208;SDS011;38507;53.132;6.394;2023-06-10T05:18:25;13.55;;;5.57;;
52208;SDS011;38507;53.132;6.394;2023-06-10T05:20:51;13.95;;;5.40;;
52208;SDS011;38507;53.132;6.394;2023-06-10T05:23:18;13.40;;;5.10;;
52208;SDS011;38507;53.132;6.394;2023-06-10T05:25:44;10.98;;;4.93;;
52208;SDS011;38507;53.132;6.394;2023-06-10T05:28:10;16.05;;;5.10;;
52208;SDS011;38507;53.132;6.394;2023-06-10T05:30:36;13.88;;;5.50;;
52208;SDS011;38507;53.132;6.394;2023-06-10T05:33:02;15.48;;;5.93;;
52208;SDS011;38507;53.132;6.394;2023-06-10T05:35:29;14.23;;;5.20;;
52208;SDS011;38507;53.132;6.394;2023-06-10T05:37:54;13.88;;;4.93;;
52208;SDS011;38507;53.132;6.394;2023-06-10T05:40:20;12.35;;;5.28;;
52208;SDS011;38507;53.132;6.394;2023-06-10T05:42:46;12.05;;;5.40;;
52208;SDS011;38507;53.132;6.394;2023-06-10T05:45:11;13.05;;;5.43;;
52208;SDS011;38507;53.132;6.394;2023-06-10T05:47:37;11.10;;;4.90;;
52208;SDS011;38507;53.132;6.394;2023-06-10T05:50:03;12.63;;;5.45;;
52208;SDS011;38507;53.132;6.394;2023-06-10T05:52:32;10.23;;;4.82;;
52208;SDS011;38507;53.132;6.394;2023-06-10T05:54:59;10.98;;;5.07;;
52208;SDS011;38507;53.132;6.394;2023-06-10T05:57:25;15.57;;;5.53;;
52208;SDS011;38507;53.132;6.394;2023-06-10T05:59:51;10.05;;;4.90;;
52208;SDS011;38507;53.132;6.394;2023-06-10T06:02:16;10.77;;;4.85;;
52208;SDS011;38507;53.132;6.394;2023-06-10T06:04:42;10.95;;;5.30;;
52208;SDS011;38507;53.132;6.394;2023-06-10T06:07:08;11.40;;;4.88;;
52208;SDS011;38507;53.132;6.394;2023-06-10T06:09:33;9.82;;;4.15;;
52208;SDS011;38507;53.132;6.394;2023-06-10T06:11:59;11.18;;;5.30;;
52208;SDS011;38507;53.132;6.394;2023-06-10T06:14:25;12.85;;;4.88;;
52208;SDS011;38507;53.132;6.394;2023-06-10T06:16:50;12.55;;;5.13;;
52208;SDS011;38507;53.132;6.394;2023-06-10T06:19:16;12.27;;;5.28;;
52208;SDS011;38507;53.132;6.394;2023-06-10T06:21:41;9.52;;;4.70;;
52208;SDS011;38507;53.132;6.394;2023-06-10T06:24:07;12.05;;;4.93;;
52208;SDS011;38507;53.132;6.394;2023-06-10T06:26:33;11.60;;;4.85;;
52208;SDS011;38507;53.132;6.394;2023-06-10T06:28:58;12.02;;;5.35;;
52208;SDS011;38507;53.132;6.394;2023-06-10T06:31:24;9.93;;;5.20;;
52208;SDS011;38507;53.132;6.394;2023-06-10T06:33:50;16.40;;;4.72;;
52208;SDS011;38507;53.132;6.394;2023-06-10T06:36:15;14.85;;;5.55;;
52208;SDS011;38507;53.132;6.394;2023-06-10T06:38:41;15.80;;;4.97;;
52208;SDS011;38507;53.132;6.394;2023-06-10T06:41:07;10.07;;;4.22;;
52208;SDS011;38507;53.132;6.394;2023-06-10T06:43:32;11.65;;;4.97;;
52208;SDS011;38507;53.132;6.394;2023-06-10T06:45:59;14.52;;;5.55;;
52208;SDS011;38507;53.132;6.394;2023-06-10T06:48:24;9.93;;;4.97;;
52208;SDS011;38507;53.132;6.394;2023-06-10T06:50:50;12.60;;;5.30;;
52208;SDS011;38507;53.132;6.394;2023-06-10T06:53:15;13.73;;;5.28;;
52208;SDS011;38507;53.132;6.394;2023-06-10T06:55:41;12.13;;;5.07;;
52208;SDS011;38507;53.132;6.394;2023-06-10T06:58:07;10.18;;;4.78;;
52208;SDS011;38507;53.132;6.394;2023-06-10T07:00:32;10.85;;;5.05;;
52208;SDS011;38507;53.132;6.394;2023-06-10T07:02:58;12.15;;;5.55;;
52208;SDS011;38507;53.132;6.394;2023-06-10T07:05:24;14.27;;;5.53;;
52208;SDS011;38507;53.132;6.394;2023-06-10T07:07:53;12.15;;;4.97;;
52208;SDS011;38507;53.132;6.394;2023-06-10T07:10:21;12.00;;;4.63;;
52208;SDS011;38507;53.132;6.394;2023-06-10T07:12:48;9.82;;;4.75;;
52208;SDS011;38507;53.132;6.394;2023-06-10T07:15:13;13.45;;;5.03;;
52208;SDS011;38507;53.132;6.394;2023-06-10T07:17:39;11.50;;;4.60;;
52208;SDS011;38507;53.132;6.394;2023-06-10T07:20:05;13.60;;;4.82;;
52208;SDS011;38507;53.132;6.394;2023-06-10T07:22:31;13.10;;;4.88;;
52208;SDS011;38507;53.132;6.394;2023-06-10T07:24:57;10.48;;;4.85;;
52208;SDS011;38507;53.132;6.394;2023-06-10T07:27:23;10.43;;;3.90;;
52208;SDS011;38507;53.132;6.394;2023-06-10T07:29:48;8.88;;;4.07;;
52208;SDS011;38507;53.132;6.394;2023-06-10T07:32:15;9.25;;;4.10;;
52208;SDS011;38507;53.132;6.394;2023-06-10T07:34:41;7.53;;;3.47;;
52208;SDS011;38507;53.132;6.394;2023-06-10T07:37:06;11.98;;;4.22;;
52208;SDS011;38507;53.132;6.394;2023-06-10T07:39:32;10.68;;;3.70;;
52208;SDS011;38507;53.132;6.394;2023-06-10T07:41:58;12.18;;;3.35;;
52208;SDS011;38507;53.132;6.394;2023-06-10T07:44:23;12.38;;;3.42;;
52208;SDS011;38507;53.132;6.394;2023-06-10T07:46:49;8.75;;;3.97;;
52208;SDS011;38507;53.132;6.394;2023-06-10T07:49:15;10.10;;;4.25;;
52208;SDS011;38507;53.132;6.394;2023-06-10T07:51:40;7.63;;;3.38;;
52208;SDS011;38507;53.132;6.394;2023-06-10T07:54:06;9.73;;;3.88;;
52208;SDS011;38507;53.132;6.394;2023-06-10T07:56:32;10.82;;;4.22;;
52208;SDS011;38507;53.132;6.394;2023-06-10T07:58:57;10.90;;;3.85;;
52208;SDS011;38507;53.132;6.394;2023-06-10T08:01:23;8.70;;;3.88;;
52208;SDS011;38507;53.132;6.394;2023-06-10T08:03:49;7.13;;;3.83;;
52208;SDS011;38507;53.132;6.394;2023-06-10T08:06:15;10.70;;;4.13;;
52208;SDS011;38507;53.132;6.394;2023-06-10T08:08:42;8.82;;;4.00;;
52208;SDS011;38507;53.132;6.394;2023-06-10T08:11:10;7.82;;;3.17;;
52208;SDS011;38507;53.132;6.394;2023-06-10T08:13:36;11.23;;;4.07;;
52208;SDS011;38507;53.132;6.394;2023-06-10T08:16:02;10.68;;;3.65;;
52208;SDS011;38507;53.132;6.394;2023-06-10T08:18:28;7.32;;;3.70;;
52208;SDS011;38507;53.132;6.394;2023-06-10T08:20:54;9.93;;;3.60;;
52208;SDS011;38507;53.132;6.394;2023-06-10T08:23:20;8.70;;;3.75;;
52208;SDS011;38507;53.132;6.394;2023-06-10T08:25:45;9.07;;;3.53;;
52208;SDS011;38507;53.132;6.394;2023-06-10T08:28:11;9.18;;;3.50;;
52208;SDS011;38507;53.132;6.394;2023-06-10T08:30:37;9.20;;;4.13;;
52208;SDS011;38507;53.132;6.394;2023-06-10T08:33:02;8.05;;;3.45;;
52208;SDS011;38507;53.132;6.394;2023-06-10T08:35:28;14.98;;;4.60;;
52208;SDS011;38507;53.132;6.394;2023-06-10T08:37:54;7.57;;;3.50;;
52208;SDS011;38507;53.132;6.394;2023-06-10T08:40:20;11.13;;;4.43;;
52208;SDS011;38507;53.132;6.394;2023-06-10T08:42:48;8.05;;;3.65;;
52208;SDS011;38507;53.132;6.394;2023-06-10T08:45:16;8.30;;;3.58;;
52208;SDS011;38507;53.132;6.394;2023-06-10T08:47:45;6.47;;;3.17;;
52208;SDS011;38507;53.132;6.394;2023-06-10T08:50:12;8.90;;;3.70;;
52208;SDS011;38507;53.132;6.394;2023-06-10T08:52:41;8.00;;;3.60;;
52208;SDS011;38507;53.132;6.394;2023-06-10T08:55:14;12.93;;;3.67;;
52208;SDS011;38507;53.132;6.394;2023-06-10T08:57:44;10.60;;;3.97;;
52208;SDS011;38507;53.132;6.394;2023-06-10T09:00:11;7.15;;;3.53;;
52208;SDS011;38507;53.132;6.394;2023-06-10T09:02:38;12.55;;;3.25;;
52208;SDS011;38507;53.132;6.394;2023-06-10T09:05:04;10.82;;;3.83;;
52208;SDS011;38507;53.132;6.394;2023-06-10T09:07:30;8.80;;;3.20;;
52208;SDS011;38507;53.132;6.394;2023-06-10T09:09:56;9.10;;;3.15;;
52208;SDS011;38507;53.132;6.394;2023-06-10T09:12:24;11.23;;;3.30;;
52208;SDS011;38507;53.132;6.394;2023-06-10T09:14:49;12.25;;;3.72;;
52208;SDS011;38507;53.132;6.394;2023-06-10T09:17:16;6.55;;;2.83;;
52208;SDS011;38507;53.132;6.394;2023-06-10T09:19:42;8.52;;;4.28;;
52208;SDS011;38507;53.132;6.394;2023-06-10T09:22:09;5.82;;;2.97;;
52208;SDS011;38507;53.132;6.394;2023-06-10T09:24:35;6.45;;;3.08;;
52208;SDS011;38507;53.132;6.394;2023-06-10T09:27:02;7.57;;;3.47;;
52208;SDS011;38507;53.132;6.394;2023-06-10T09:29:45;7.90;;;3.33;;
52208;SDS011;38507;53.132;6.394;2023-06-10T09:32:17;8.27;;;3.47;;
52208;SDS011;38507;53.132;6.394;2023-06-10T09:34:44;6.75;;;3.13;;
52208;SDS011;38507;53.132;6.394;2023-06-10T09:37:10;6.90;;;2.83;;
52208;SDS011;38507;53.132;6.394;2023-06-10T09:39:38;6.90;;;2.80;;
52208;SDS011;38507;53.132;6.394;2023-06-10T09:42:26;8.98;;;3.45;;
52208;SDS011;38507;53.132;6.394;2023-06-10T09:44:51;7.25;;;2.88;;
52208;SDS011;38507;53.132;6.394;2023-06-10T09:47:20;7.85;;;2.90;;
52208;SDS011;38507;53.132;6.394;2023-06-10T09:49:47;8.60;;;3.03;;
52208;SDS011;38507;53.132;6.394;2023-06-10T09:52:14;5.35;;;3.17;;
52208;SDS011;38507;53.132;6.394;2023-06-10T09:54:47;10.25;;;3.10;;
52208;SDS011;38507;53.132;6.394;2023-06-10T09:57:13;5.93;;;2.70;;
52208;SDS011;38507;53.132;6.394;2023-06-10T09:59:39;8.00;;;3.03;;
52208;SDS011;38507;53.132;6.394;2023-06-10T10:02:06;10.95;;;3.22;;
52208;SDS011;38507;53.132;6.394;2023-06-10T10:04:31;7.78;;;3.05;;
52208;SDS011;38507;53.132;6.394;2023-06-10T10:07:01;10.00;;;3.53;;
52208;SDS011;38507;53.132;6.394;2023-06-10T10:09:27;6.35;;;2.70;;
52208;SDS011;38507;53.132;6.394;2023-06-10T10:11:53;6.00;;;3.00;;
52208;SDS011;38507;53.132;6.394;2023-06-10T10:14:20;7.28;;;3.17;;
52208;SDS011;38507;53.132;6.394;2023-06-10T10:16:47;7.05;;;2.75;;
52208;SDS011;38507;53.132;6.394;2023-06-10T10:19:18;6.15;;;2.90;;
52208;SDS011;38507;53.132;6.394;2023-06-10T10:21:52;12.77;;;3.03;;
52208;SDS011;38507;53.132;6.394;2023-06-10T10:24:20;6.47;;;2.67;;
52208;SDS011;38507;53.132;6.394;2023-06-10T10:26:48;8.43;;;3.20;;
52208;SDS011;38507;53.132;6.394;2023-06-10T10:31:58;7.05;;;2.55;;
52208;SDS011;38507;53.132;6.394;2023-06-10T10:37:09;9.65;;;3.55;;
52208;SDS011;38507;53.132;6.394;2023-06-10T10:39:44;4.50;;;2.35;;
52208;SDS011;38507;53.132;6.394;2023-06-10T10:42:10;6.07;;;2.50;;
52208;SDS011;38507;53.132;6.394;2023-06-10T10:44:37;8.52;;;2.58;;
52208;SDS011;38507;53.132;6.394;2023-06-10T10:47:04;8.80;;;2.88;;
52208;SDS011;38507;53.132;6.394;2023-06-10T10:49:32;11.15;;;3.00;;
52208;SDS011;38507;53.132;6.394;2023-06-10T10:52:00;5.88;;;2.33;;
52208;SDS011;38507;53.132;6.394;2023-06-10T10:54:31;8.60;;;3.08;;
52208;SDS011;38507;53.132;6.394;2023-06-10T10:59:46;6.05;;;2.55;;
52208;SDS011;38507;53.132;6.394;2023-06-10T11:04:58;5.28;;;2.22;;
52208;SDS011;38507;53.132;6.394;2023-06-10T11:07:25;7.03;;;2.60;;
52208;SDS011;38507;53.132;6.394;2023-06-10T11:09:58;6.70;;;2.35;;
52208;SDS011;38507;53.132;6.394;2023-06-10T11:12:41;5.28;;;2.25;;
52208;SDS011;38507;53.132;6.394;2023-06-10T11:15:10;8.32;;;2.63;;
52208;SDS011;38507;53.132;6.394;2023-06-10T11:17:36;4.90;;;2.20;;
52208;SDS011;38507;53.132;6.394;2023-06-10T11:20:02;9.10;;;2.38;;
52208;SDS011;38507;53.132;6.394;2023-06-10T11:22:28;8.75;;;2.45;;
52208;SDS011;38507;53.132;6.394;2023-06-10T11:24:54;5.55;;;2.90;;
52208;SDS011;38507;53.132;6.394;2023-06-10T11:27:23;4.30;;;2.13;;
52208;SDS011;38507;53.132;6.394;2023-06-10T11:32:45;9.60;;;2.67;;
52208;SDS011;38507;53.132;6.394;2023-06-10T11:35:16;5.47;;;2.22;;
52208;SDS011;38507;53.132;6.394;2023-06-10T11:37:44;7.85;;;2.38;;
52208;SDS011;38507;53.132;6.394;2023-06-10T11:40:11;10.23;;;2.85;;
52208;SDS011;38507;53.132;6.394;2023-06-10T11:42:40;7.90;;;2.22;;
52208;SDS011;38507;53.132;6.394;2023-06-10T11:45:07;6.25;;;2.50;;
52208;SDS011;38507;53.132;6.394;2023-06-10T11:47:33;9.20;;;2.70;;
52208;SDS011;38507;53.132;6.394;2023-06-10T11:49:59;9.57;;;2.33;;
52208;SDS011;38507;53.132;6.394;2023-06-10T11:52:30;8.82;;;2.55;;
52208;SDS011;38507;53.132;6.394;2023-06-10T11:55:04;7.13;;;2.30;;
52208;SDS011;38507;53.132;6.394;2023-06-10T11:57:33;6.53;;;2.15;;
52208;SDS011;38507;53.132;6.394;2023-06-10T12:00:03;6.35;;;1.88;;
52208;SDS011;38507;53.132;6.394;2023-06-10T12:02:32;6.68;;;2.45;;
52208;SDS011;38507;53.132;6.394;2023-06-10T12:05:09;7.35;;;2.63;;
52208;SDS011;38507;53.132;6.394;2023-06-10T12:07:38;5.97;;;2.28;;
52208;SDS011;38507;53.132;6.394;2023-06-10T12:10:03;9.00;;;2.60;;
52208;SDS011;38507;53.132;6.394;2023-06-10T12:12:29;8.95;;;2.97;;
52208;SDS011;38507;53.132;6.394;2023-06-10T12:15:00;4.32;;;2.25;;
52208;SDS011;38507;53.132;6.394;2023-06-10T12:20:03;6.13;;;2.80;;
52208;SDS011;38507;53.132;6.394;2023-06-10T12:25:07;6.15;;;3.03;;
52208;SDS011;38507;53.132;6.394;2023-06-10T12:27:34;7.53;;;2.53;;
52208;SDS011;38507;53.132;6.394;2023-06-10T12:30:00;4.90;;;2.30;;
52208;SDS011;38507;53.132;6.394;2023-06-10T12:32:39;6.78;;;2.30;;
52208;SDS011;38507;53.132;6.394;2023-06-10T12:35:07;6.88;;;2.38;;
52208;SDS011;38507;53.132;6.394;2023-06-10T12:37:34;7.57;;;2.53;;
52208;SDS011;38507;53.132;6.394;2023-06-10T12:40:02;6.30;;;2.35;;
52208;SDS011;38507;53.132;6.394;2023-06-10T12:42:32;10.05;;;2.47;;
52208;SDS011;38507;53.132;6.394;2023-06-10T12:45:01;7.70;;;2.28;;
52208;SDS011;38507;53.132;6.394;2023-06-10T12:47:31;7.85;;;2.50;;
52208;SDS011;38507;53.132;6.394;2023-06-10T12:50:03;8.43;;;2.42;;
52208;SDS011;38507;53.132;6.394;2023-06-10T12:52:29;5.40;;;2.22;;
52208;SDS011;38507;53.132;6.394;2023-06-10T12:54:55;12.02;;;3.13;;
52208;SDS011;38507;53.132;6.394;2023-06-10T12:57:21;9.25;;;2.53;;
52208;SDS011;38507;53.132;6.394;2023-06-10T12:59:47;5.57;;;2.72;;
52208;SDS011;38507;53.132;6.394;2023-06-10T13:02:18;7.70;;;2.60;;
52208;SDS011;38507;53.132;6.394;2023-06-10T13:04:45;5.57;;;2.22;;
52208;SDS011;38507;53.132;6.394;2023-06-10T13:07:11;10.10;;;2.65;;
52208;SDS011;38507;53.132;6.394;2023-06-10T13:09:37;6.53;;;2.70;;
52208;SDS011;38507;53.132;6.394;2023-06-10T13:12:02;5.32;;;2.50;;
52208;SDS011;38507;53.132;6.394;2023-06-10T13:14:28;8.65;;;2.60;;
52208;SDS011;38507;53.132;6.394;2023-06-10T13:16:54;7.60;;;2.55;;
52208;SDS011;38507;53.132;6.394;2023-06-10T13:19:20;6.10;;;2.00;;
52208;SDS011;38507;53.132;6.394;2023-06-10T13:21:49;5.43;;;2.28;;
52208;SDS011;38507;53.132;6.394;2023-06-10T13:24:14;8.85;;;2.33;;
52208;SDS011;38507;53.132;6.394;2023-06-10T13:26:40;4.28;;;2.20;;
52208;SDS011;38507;53.132;6.394;2023-06-10T13:29:06;5.53;;;2.20;;
52208;SDS011;38507;53.132;6.394;2023-06-10T13:31:33;8.70;;;2.60;;
52208;SDS011;38507;53.132;6.394;2023-06-10T13:33:59;4.50;;;2.33;;
52208;SDS011;38507;53.132;6.394;2023-06-10T13:36:24;7.70;;;2.70;;
52208;SDS011;38507;53.132;6.394;2023-06-10T13:38:50;8.55;;;3.10;;
52208;SDS011;38507;53.132;6.394;2023-06-10T13:41:16;6.60;;;2.47;;
52208;SDS011;38507;53.132;6.394;2023-06-10T13:43:41;5.35;;;2.70;;
52208;SDS011;38507;53.132;6.394;2023-06-10T13:46:07;9.90;;;2.60;;
52208;SDS011;38507;53.132;6.394;2023-06-10T13:48:33;8.20;;;2.90;;
52208;SDS011;38507;53.132;6.394;2023-06-10T13:50:58;6.40;;;2.67;;
52208;SDS011;38507;53.132;6.394;2023-06-10T13:53:25;5.88;;;2.70;;
52208;SDS011;38507;53.132;6.394;2023-06-10T13:55:51;5.97;;;2.90;;
52208;SDS011;38507;53.132;6.394;2023-06-10T13:58:16;6.68;;;2.90;;
52208;SDS011;38507;53.132;6.394;2023-06-10T14:00:42;6.32;;;2.70;;
52208;SDS011;38507;53.132;6.394;2023-06-10T14:03:08;6.88;;;2.50;;
52208;SDS011;38507;53.132;6.394;2023-06-10T14:05:33;7.95;;;2.67;;
52208;SDS011;38507;53.132;6.394;2023-06-10T14:07:59;9.35;;;2.70;;
52208;SDS011;38507;53.132;6.394;2023-06-10T14:10:25;10.25;;;2.25;;
52208;SDS011;38507;53.132;6.394;2023-06-10T14:12:50;7.75;;;2.00;;
52208;SDS011;38507;53.132;6.394;2023-06-10T14:15:16;6.68;;;1.88;;
52208;SDS011;38507;53.132;6.394;2023-06-10T14:17:42;5.35;;;1.73;;
52208;SDS011;38507;53.132;6.394;2023-06-10T14:20:08;4.65;;;2.22;;
52208;SDS011;38507;53.132;6.394;2023-06-10T14:22:34;4.55;;;1.95;;
52208;SDS011;38507;53.132;6.394;2023-06-10T14:24:59;5.05;;;1.77;;
52208;SDS011;38507;53.132;6.394;2023-06-10T14:27:25;6.72;;;1.98;;
52208;SDS011;38507;53.132;6.394;2023-06-10T14:29:51;3.78;;;1.92;;
52208;SDS011;38507;53.132;6.394;2023-06-10T14:32:16;4.90;;;2.05;;
52208;SDS011;38507;53.132;6.394;2023-06-10T14:34:42;5.47;;;2.22;;
52208;SDS011;38507;53.132;6.394;2023-06-10T14:37:09;4.70;;;2.25;;
52208;SDS011;38507;53.132;6.394;2023-06-10T14:39:35;3.83;;;2.00;;
52208;SDS011;38507;53.132;6.394;2023-06-10T14:42:01;6.10;;;1.95;;
52208;SDS011;38507;53.132;6.394;2023-06-10T14:44:27;7.00;;;2.67;;
52208;SDS011;38507;53.132;6.394;2023-06-10T14:46:52;2.80;;;1.63;;
52208;SDS011;38507;53.132;6.394;2023-06-10T14:49:18;6.32;;;2.47;;
52208;SDS011;38507;53.132;6.394;2023-06-10T14:51:44;6.63;;;2.22;;
52208;SDS011;38507;53.132;6.394;2023-06-10T14:54:10;5.20;;;2.08;;
52208;SDS011;38507;53.132;6.394;2023-06-10T14:56:36;5.22;;;2.00;;
52208;SDS011;38507;53.132;6.394;2023-06-10T14:59:01;4.68;;;2.40;;
52208;SDS011;38507;53.132;6.394;2023-06-10T15:01:27;7.35;;;2.58;;
52208;SDS011;38507;53.132;6.394;2023-06-10T15:03:52;9.73;;;2.78;;